<?xml version="1.0" encoding="UTF-8" standalone="no" ?>
<gpx xmlns="http://www.topografix.com/GPX/1/1" xmlns:xsi="http://www.w3.org/2001/XMLSchema-instance" xsi:schemaLocation="http://www.topografix.com/GPX/1/1 http://www.topografix.com/GPX/1/1/gpx.xsd" version="1.1" creator="VisuGPX - https://www.visugpx.com">
  <metadata>
    <name>L Aulp Du Seuil</name>
    <desc><![CDATA[grp_trc:[nouvelles]]]></desc>
  </metadata>
  <trk>
    <name><![CDATA[29 août 2021 à 10:52:06]]></name>
    <cmt><![CDATA[29 août 2021 à 10:52:06]]></cmt>
    <trkseg>
      <trkpt lat="45.4405" lon="5.90756">
        <ele>1119</ele>
        <time>2021-08-29T08:52:07Z</time>
      </trkpt>
      <trkpt lat="45.44064" lon="5.90765">
        <ele>1119</ele>
        <time>2021-08-29T08:52:35Z</time>
      </trkpt>
      <trkpt lat="45.44076" lon="5.90784">
        <ele>1122</ele>
        <time>2021-08-29T08:52:45Z</time>
      </trkpt>
      <trkpt lat="45.44086" lon="5.90801">
        <ele>1123</ele>
        <time>2021-08-29T08:52:57Z</time>
      </trkpt>
      <trkpt lat="45.44096" lon="5.90815">
        <ele>1126</ele>
        <time>2021-08-29T08:53:09Z</time>
      </trkpt>
      <trkpt lat="45.44085" lon="5.90842">
        <ele>1129</ele>
        <time>2021-08-29T08:53:29Z</time>
      </trkpt>
      <trkpt lat="45.44075" lon="5.9085">
        <ele>1131</ele>
        <time>2021-08-29T08:53:39Z</time>
      </trkpt>
      <trkpt lat="45.44061" lon="5.90869">
        <ele>1134</ele>
        <time>2021-08-29T08:53:58Z</time>
      </trkpt>
      <trkpt lat="45.44055" lon="5.9089">
        <ele>1135</ele>
        <time>2021-08-29T08:54:07Z</time>
      </trkpt>
      <trkpt lat="45.44053" lon="5.90911">
        <ele>1135</ele>
        <time>2021-08-29T08:54:16Z</time>
      </trkpt>
      <trkpt lat="45.44048" lon="5.90929">
        <ele>1137</ele>
        <time>2021-08-29T08:54:30Z</time>
      </trkpt>
      <trkpt lat="45.44029" lon="5.90972">
        <ele>1146</ele>
        <time>2021-08-29T08:55:30Z</time>
      </trkpt>
      <trkpt lat="45.44017" lon="5.90993">
        <ele>1147</ele>
        <time>2021-08-29T08:55:49Z</time>
      </trkpt>
      <trkpt lat="45.44019" lon="5.91015">
        <ele>1147</ele>
        <time>2021-08-29T08:55:59Z</time>
      </trkpt>
      <trkpt lat="45.44035" lon="5.91064">
        <ele>1150</ele>
        <time>2021-08-29T08:56:45Z</time>
      </trkpt>
      <trkpt lat="45.44013" lon="5.91122">
        <ele>1146</ele>
        <time>2021-08-29T08:57:18Z</time>
      </trkpt>
      <trkpt lat="45.43994" lon="5.91172">
        <ele>1148</ele>
        <time>2021-08-29T08:57:45Z</time>
      </trkpt>
      <trkpt lat="45.43999" lon="5.91239">
        <ele>1159</ele>
        <time>2021-08-29T08:58:57Z</time>
      </trkpt>
      <trkpt lat="45.44021" lon="5.91269">
        <ele>1168</ele>
        <time>2021-08-29T08:59:45Z</time>
      </trkpt>
      <trkpt lat="45.44052" lon="5.91271">
        <ele>1168</ele>
        <time>2021-08-29T09:00:04Z</time>
      </trkpt>
      <trkpt lat="45.44069" lon="5.91309">
        <ele>1180</ele>
        <time>2021-08-29T09:00:56Z</time>
      </trkpt>
      <trkpt lat="45.441" lon="5.91334">
        <ele>1186</ele>
        <time>2021-08-29T09:01:40Z</time>
      </trkpt>
      <trkpt lat="45.44141" lon="5.91343">
        <ele>1193</ele>
        <time>2021-08-29T09:02:29Z</time>
      </trkpt>
      <trkpt lat="45.44182" lon="5.91312">
        <ele>1201</ele>
        <time>2021-08-29T09:03:21Z</time>
      </trkpt>
      <trkpt lat="45.44212" lon="5.91284">
        <ele>1203</ele>
        <time>2021-08-29T09:03:56Z</time>
      </trkpt>
      <trkpt lat="45.44262" lon="5.91284">
        <ele>1209</ele>
        <time>2021-08-29T09:04:51Z</time>
      </trkpt>
      <trkpt lat="45.44308" lon="5.91283">
        <ele>1213</ele>
        <time>2021-08-29T09:05:30Z</time>
      </trkpt>
      <trkpt lat="45.44359" lon="5.9132">
        <ele>1219</ele>
        <time>2021-08-29T09:06:31Z</time>
      </trkpt>
      <trkpt lat="45.44387" lon="5.9132">
        <ele>1223</ele>
        <time>2021-08-29T09:06:53Z</time>
      </trkpt>
      <trkpt lat="45.44365" lon="5.9137">
        <ele>1240</ele>
        <time>2021-08-29T09:08:33Z</time>
      </trkpt>
      <trkpt lat="45.44357" lon="5.91413">
        <ele>1251</ele>
        <time>2021-08-29T09:09:35Z</time>
      </trkpt>
      <trkpt lat="45.44363" lon="5.91454">
        <ele>1263</ele>
        <time>2021-08-29T09:10:41Z</time>
      </trkpt>
      <trkpt lat="45.44356" lon="5.91502">
        <ele>1271</ele>
        <time>2021-08-29T09:11:24Z</time>
      </trkpt>
      <trkpt lat="45.44336" lon="5.91533">
        <ele>1281</ele>
        <time>2021-08-29T09:12:20Z</time>
      </trkpt>
      <trkpt lat="45.44301" lon="5.91552">
        <ele>1289</ele>
        <time>2021-08-29T09:13:09Z</time>
      </trkpt>
      <trkpt lat="45.44291" lon="5.9159">
        <ele>1301</ele>
        <time>2021-08-29T09:14:21Z</time>
      </trkpt>
      <trkpt lat="45.44268" lon="5.91619">
        <ele>1311</ele>
        <time>2021-08-29T09:15:16Z</time>
      </trkpt>
      <trkpt lat="45.44267" lon="5.91669">
        <ele>1320</ele>
        <time>2021-08-29T09:16:15Z</time>
      </trkpt>
      <trkpt lat="45.44285" lon="5.91654">
        <ele>1333</ele>
        <time>2021-08-29T09:17:54Z</time>
      </trkpt>
      <trkpt lat="45.44314" lon="5.91658">
        <ele>1369</ele>
        <time>2021-08-29T09:21:30Z</time>
      </trkpt>
      <trkpt lat="45.44311" lon="5.91705">
        <ele>1383</ele>
        <time>2021-08-29T09:22:53Z</time>
      </trkpt>
      <trkpt lat="45.44303" lon="5.91741">
        <ele>1392</ele>
        <time>2021-08-29T09:23:54Z</time>
      </trkpt>
      <trkpt lat="45.44343" lon="5.91767">
        <ele>1406</ele>
        <time>2021-08-29T09:25:08Z</time>
      </trkpt>
      <trkpt lat="45.44363" lon="5.91796">
        <ele>1418</ele>
        <time>2021-08-29T09:26:25Z</time>
      </trkpt>
      <trkpt lat="45.44353" lon="5.91837">
        <ele>1426</ele>
        <time>2021-08-29T09:27:10Z</time>
      </trkpt>
      <trkpt lat="45.44329" lon="5.91864">
        <ele>1433</ele>
        <time>2021-08-29T09:28:28Z</time>
      </trkpt>
      <trkpt lat="45.44312" lon="5.91914">
        <ele>1448</ele>
        <time>2021-08-29T09:29:41Z</time>
      </trkpt>
      <trkpt lat="45.44282" lon="5.91947">
        <ele>1452</ele>
        <time>2021-08-29T09:30:10Z</time>
      </trkpt>
      <trkpt lat="45.4426" lon="5.91977">
        <ele>1456</ele>
        <time>2021-08-29T09:30:25Z</time>
      </trkpt>
      <trkpt lat="45.44251" lon="5.92016">
        <ele>1458</ele>
        <time>2021-08-29T09:30:38Z</time>
      </trkpt>
      <trkpt lat="45.44267" lon="5.9203">
        <ele>1467</ele>
        <time>2021-08-29T09:31:38Z</time>
      </trkpt>
      <trkpt lat="45.44311" lon="5.91941">
        <ele>1478</ele>
        <time>2021-08-29T09:33:01Z</time>
      </trkpt>
      <trkpt lat="45.44331" lon="5.91907">
        <ele>1484</ele>
        <time>2021-08-29T09:33:04Z</time>
      </trkpt>
      <trkpt lat="45.44355" lon="5.91871">
        <ele>1481</ele>
        <time>2021-08-29T09:33:07Z</time>
      </trkpt>
      <trkpt lat="45.44361" lon="5.91834">
        <ele>1482</ele>
        <time>2021-08-29T09:33:11Z</time>
      </trkpt>
      <trkpt lat="45.44305" lon="5.91862">
        <ele>1486</ele>
        <time>2021-08-29T09:33:42Z</time>
      </trkpt>
      <trkpt lat="45.44265" lon="5.91849">
        <ele>1495</ele>
        <time>2021-08-29T09:34:36Z</time>
      </trkpt>
      <trkpt lat="45.44243" lon="5.91866">
        <ele>1511</ele>
        <time>2021-08-29T09:36:06Z</time>
      </trkpt>
      <trkpt lat="45.44198" lon="5.91864">
        <ele>1517</ele>
        <time>2021-08-29T09:37:12Z</time>
      </trkpt>
      <trkpt lat="45.44184" lon="5.91873">
        <ele>1522</ele>
        <time>2021-08-29T09:37:38Z</time>
      </trkpt>
      <trkpt lat="45.44176" lon="5.91892">
        <ele>1523</ele>
        <time>2021-08-29T09:37:56Z</time>
      </trkpt>
      <trkpt lat="45.44176" lon="5.91902">
        <ele>1524</ele>
        <time>2021-08-29T09:38:02Z</time>
      </trkpt>
      <trkpt lat="45.44175" lon="5.91918">
        <ele>1524</ele>
        <time>2021-08-29T09:38:11Z</time>
      </trkpt>
      <trkpt lat="45.44177" lon="5.91927">
        <ele>1524</ele>
        <time>2021-08-29T09:38:16Z</time>
      </trkpt>
      <trkpt lat="45.44178" lon="5.91935">
        <ele>1523</ele>
        <time>2021-08-29T09:38:20Z</time>
      </trkpt>
      <trkpt lat="45.4418" lon="5.91943">
        <ele>1524</ele>
        <time>2021-08-29T09:38:27Z</time>
      </trkpt>
      <trkpt lat="45.44181" lon="5.91951">
        <ele>1524</ele>
        <time>2021-08-29T09:38:32Z</time>
      </trkpt>
      <trkpt lat="45.4418" lon="5.91961">
        <ele>1525</ele>
        <time>2021-08-29T09:38:37Z</time>
      </trkpt>
      <trkpt lat="45.44179" lon="5.91968">
        <ele>1526</ele>
        <time>2021-08-29T09:38:41Z</time>
      </trkpt>
      <trkpt lat="45.44178" lon="5.91976">
        <ele>1526</ele>
        <time>2021-08-29T09:38:46Z</time>
      </trkpt>
      <trkpt lat="45.44178" lon="5.91984">
        <ele>1526</ele>
        <time>2021-08-29T09:38:51Z</time>
      </trkpt>
      <trkpt lat="45.44177" lon="5.91993">
        <ele>1525</ele>
        <time>2021-08-29T09:38:56Z</time>
      </trkpt>
      <trkpt lat="45.44176" lon="5.92001">
        <ele>1527</ele>
        <time>2021-08-29T09:39:00Z</time>
      </trkpt>
      <trkpt lat="45.44172" lon="5.92017">
        <ele>1527</ele>
        <time>2021-08-29T09:39:10Z</time>
      </trkpt>
      <trkpt lat="45.44171" lon="5.92042">
        <ele>1530</ele>
        <time>2021-08-29T09:39:26Z</time>
      </trkpt>
      <trkpt lat="45.44171" lon="5.92052">
        <ele>1530</ele>
        <time>2021-08-29T09:39:35Z</time>
      </trkpt>
      <trkpt lat="45.4417" lon="5.9206">
        <ele>1532</ele>
        <time>2021-08-29T09:39:41Z</time>
      </trkpt>
      <trkpt lat="45.4417" lon="5.92069">
        <ele>1533</ele>
        <time>2021-08-29T09:39:47Z</time>
      </trkpt>
      <trkpt lat="45.4417" lon="5.92078">
        <ele>1533</ele>
        <time>2021-08-29T09:39:52Z</time>
      </trkpt>
      <trkpt lat="45.44173" lon="5.92094">
        <ele>1534</ele>
        <time>2021-08-29T09:40:06Z</time>
      </trkpt>
      <trkpt lat="45.44182" lon="5.92135">
        <ele>1533</ele>
        <time>2021-08-29T09:40:33Z</time>
      </trkpt>
      <trkpt lat="45.44182" lon="5.92144">
        <ele>1533</ele>
        <time>2021-08-29T09:40:38Z</time>
      </trkpt>
      <trkpt lat="45.44184" lon="5.92152">
        <ele>1533</ele>
        <time>2021-08-29T09:40:43Z</time>
      </trkpt>
      <trkpt lat="45.44189" lon="5.92158">
        <ele>1534</ele>
        <time>2021-08-29T09:40:49Z</time>
      </trkpt>
      <trkpt lat="45.44192" lon="5.92166">
        <ele>1535</ele>
        <time>2021-08-29T09:40:55Z</time>
      </trkpt>
      <trkpt lat="45.44195" lon="5.92171">
        <ele>1535</ele>
        <time>2021-08-29T09:41:00Z</time>
      </trkpt>
      <trkpt lat="45.442" lon="5.9218">
        <ele>1535</ele>
        <time>2021-08-29T09:41:07Z</time>
      </trkpt>
      <trkpt lat="45.44203" lon="5.9219">
        <ele>1535</ele>
        <time>2021-08-29T09:41:15Z</time>
      </trkpt>
      <trkpt lat="45.44203" lon="5.92199">
        <ele>1535</ele>
        <time>2021-08-29T09:41:20Z</time>
      </trkpt>
      <trkpt lat="45.44204" lon="5.92206">
        <ele>1535</ele>
        <time>2021-08-29T09:41:25Z</time>
      </trkpt>
      <trkpt lat="45.44203" lon="5.92215">
        <ele>1535</ele>
        <time>2021-08-29T09:41:31Z</time>
      </trkpt>
      <trkpt lat="45.442" lon="5.92221">
        <ele>1535</ele>
        <time>2021-08-29T09:41:39Z</time>
      </trkpt>
      <trkpt lat="45.44198" lon="5.9223">
        <ele>1535</ele>
        <time>2021-08-29T09:41:50Z</time>
      </trkpt>
      <trkpt lat="45.44196" lon="5.92238">
        <ele>1535</ele>
        <time>2021-08-29T09:41:56Z</time>
      </trkpt>
      <trkpt lat="45.44195" lon="5.92247">
        <ele>1534</ele>
        <time>2021-08-29T09:42:03Z</time>
      </trkpt>
      <trkpt lat="45.44193" lon="5.92255">
        <ele>1534</ele>
        <time>2021-08-29T09:42:11Z</time>
      </trkpt>
      <trkpt lat="45.44189" lon="5.92261">
        <ele>1534</ele>
        <time>2021-08-29T09:42:16Z</time>
      </trkpt>
      <trkpt lat="45.44186" lon="5.92269">
        <ele>1535</ele>
        <time>2021-08-29T09:42:22Z</time>
      </trkpt>
      <trkpt lat="45.44185" lon="5.92276">
        <ele>1535</ele>
        <time>2021-08-29T09:42:28Z</time>
      </trkpt>
      <trkpt lat="45.4418" lon="5.92281">
        <ele>1534</ele>
        <time>2021-08-29T09:42:33Z</time>
      </trkpt>
      <trkpt lat="45.44177" lon="5.92288">
        <ele>1535</ele>
        <time>2021-08-29T09:42:39Z</time>
      </trkpt>
      <trkpt lat="45.44173" lon="5.92299">
        <ele>1535</ele>
        <time>2021-08-29T09:42:46Z</time>
      </trkpt>
      <trkpt lat="45.44172" lon="5.92309">
        <ele>1534</ele>
        <time>2021-08-29T09:42:52Z</time>
      </trkpt>
      <trkpt lat="45.44172" lon="5.92317">
        <ele>1533</ele>
        <time>2021-08-29T09:42:58Z</time>
      </trkpt>
      <trkpt lat="45.44168" lon="5.92324">
        <ele>1533</ele>
        <time>2021-08-29T09:43:02Z</time>
      </trkpt>
      <trkpt lat="45.44166" lon="5.92331">
        <ele>1533</ele>
        <time>2021-08-29T09:43:06Z</time>
      </trkpt>
      <trkpt lat="45.44166" lon="5.92339">
        <ele>1532</ele>
        <time>2021-08-29T09:43:10Z</time>
      </trkpt>
      <trkpt lat="45.44169" lon="5.92347">
        <ele>1532</ele>
        <time>2021-08-29T09:43:15Z</time>
      </trkpt>
      <trkpt lat="45.4417" lon="5.92358">
        <ele>1531</ele>
        <time>2021-08-29T09:43:22Z</time>
      </trkpt>
      <trkpt lat="45.44171" lon="5.92375">
        <ele>1530</ele>
        <time>2021-08-29T09:43:30Z</time>
      </trkpt>
      <trkpt lat="45.44171" lon="5.92383">
        <ele>1530</ele>
        <time>2021-08-29T09:43:34Z</time>
      </trkpt>
      <trkpt lat="45.44172" lon="5.92391">
        <ele>1529</ele>
        <time>2021-08-29T09:43:38Z</time>
      </trkpt>
      <trkpt lat="45.44175" lon="5.92398">
        <ele>1529</ele>
        <time>2021-08-29T09:43:42Z</time>
      </trkpt>
      <trkpt lat="45.44178" lon="5.92405">
        <ele>1529</ele>
        <time>2021-08-29T09:43:46Z</time>
      </trkpt>
      <trkpt lat="45.44183" lon="5.92408">
        <ele>1529</ele>
        <time>2021-08-29T09:43:51Z</time>
      </trkpt>
      <trkpt lat="45.44191" lon="5.92417">
        <ele>1531</ele>
        <time>2021-08-29T09:44:03Z</time>
      </trkpt>
      <trkpt lat="45.44193" lon="5.92426">
        <ele>1533</ele>
        <time>2021-08-29T09:44:15Z</time>
      </trkpt>
      <trkpt lat="45.44199" lon="5.92432">
        <ele>1536</ele>
        <time>2021-08-29T09:44:27Z</time>
      </trkpt>
      <trkpt lat="45.44202" lon="5.92443">
        <ele>1537</ele>
        <time>2021-08-29T09:44:39Z</time>
      </trkpt>
      <trkpt lat="45.44209" lon="5.9243">
        <ele>1535</ele>
        <time>2021-08-29T09:44:57Z</time>
      </trkpt>
      <trkpt lat="45.44214" lon="5.92424">
        <ele>1535</ele>
        <time>2021-08-29T09:45:06Z</time>
      </trkpt>
      <trkpt lat="45.4422" lon="5.9242">
        <ele>1535</ele>
        <time>2021-08-29T09:45:13Z</time>
      </trkpt>
      <trkpt lat="45.44225" lon="5.92415">
        <ele>1534</ele>
        <time>2021-08-29T09:45:17Z</time>
      </trkpt>
      <trkpt lat="45.44229" lon="5.9241">
        <ele>1535</ele>
        <time>2021-08-29T09:45:23Z</time>
      </trkpt>
      <trkpt lat="45.44238" lon="5.92398">
        <ele>1534</ele>
        <time>2021-08-29T09:45:32Z</time>
      </trkpt>
      <trkpt lat="45.44251" lon="5.92386">
        <ele>1533</ele>
        <time>2021-08-29T09:45:45Z</time>
      </trkpt>
      <trkpt lat="45.44256" lon="5.92386">
        <ele>1534</ele>
        <time>2021-08-29T09:45:50Z</time>
      </trkpt>
      <trkpt lat="45.44262" lon="5.92388">
        <ele>1535</ele>
        <time>2021-08-29T09:46:02Z</time>
      </trkpt>
      <trkpt lat="45.44268" lon="5.92367">
        <ele>1540</ele>
        <time>2021-08-29T09:46:34Z</time>
      </trkpt>
      <trkpt lat="45.44275" lon="5.92368">
        <ele>1543</ele>
        <time>2021-08-29T09:46:52Z</time>
      </trkpt>
      <trkpt lat="45.44283" lon="5.92376">
        <ele>1545</ele>
        <time>2021-08-29T09:47:05Z</time>
      </trkpt>
      <trkpt lat="45.4429" lon="5.92381">
        <ele>1547</ele>
        <time>2021-08-29T09:47:17Z</time>
      </trkpt>
      <trkpt lat="45.44297" lon="5.92384">
        <ele>1549</ele>
        <time>2021-08-29T09:47:35Z</time>
      </trkpt>
      <trkpt lat="45.44294" lon="5.92359">
        <ele>1553</ele>
        <time>2021-08-29T09:47:55Z</time>
      </trkpt>
      <trkpt lat="45.44287" lon="5.9237">
        <ele>1556</ele>
        <time>2021-08-29T09:48:37Z</time>
      </trkpt>
      <trkpt lat="45.44289" lon="5.92362">
        <ele>1555</ele>
        <time>2021-08-29T09:49:33Z</time>
      </trkpt>
      <trkpt lat="45.44297" lon="5.92356">
        <ele>1556</ele>
        <time>2021-08-29T09:58:03Z</time>
      </trkpt>
      <trkpt lat="45.44291" lon="5.92353">
        <ele>1558</ele>
        <time>2021-08-29T09:58:10Z</time>
      </trkpt>
      <trkpt lat="45.44283" lon="5.92346">
        <ele>1556</ele>
        <time>2021-08-29T09:58:25Z</time>
      </trkpt>
      <trkpt lat="45.44262" lon="5.92331">
        <ele>1549</ele>
        <time>2021-08-29T09:58:53Z</time>
      </trkpt>
      <trkpt lat="45.44253" lon="5.92319">
        <ele>1546</ele>
        <time>2021-08-29T09:59:03Z</time>
      </trkpt>
      <trkpt lat="45.4425" lon="5.92312">
        <ele>1546</ele>
        <time>2021-08-29T09:59:09Z</time>
      </trkpt>
      <trkpt lat="45.44245" lon="5.92307">
        <ele>1544</ele>
        <time>2021-08-29T09:59:18Z</time>
      </trkpt>
      <trkpt lat="45.44241" lon="5.92301">
        <ele>1543</ele>
        <time>2021-08-29T09:59:24Z</time>
      </trkpt>
      <trkpt lat="45.44237" lon="5.92291">
        <ele>1541</ele>
        <time>2021-08-29T09:59:33Z</time>
      </trkpt>
      <trkpt lat="45.44235" lon="5.92269">
        <ele>1539</ele>
        <time>2021-08-29T09:59:48Z</time>
      </trkpt>
      <trkpt lat="45.44232" lon="5.92235">
        <ele>1539</ele>
        <time>2021-08-29T10:00:18Z</time>
      </trkpt>
      <trkpt lat="45.44231" lon="5.92213">
        <ele>1540</ele>
        <time>2021-08-29T10:00:31Z</time>
      </trkpt>
      <trkpt lat="45.44225" lon="5.92193">
        <ele>1539</ele>
        <time>2021-08-29T10:00:44Z</time>
      </trkpt>
      <trkpt lat="45.44212" lon="5.92185">
        <ele>1542</ele>
        <time>2021-08-29T10:01:04Z</time>
      </trkpt>
      <trkpt lat="45.44205" lon="5.92166">
        <ele>1541</ele>
        <time>2021-08-29T10:01:20Z</time>
      </trkpt>
      <trkpt lat="45.4419" lon="5.92155">
        <ele>1542</ele>
        <time>2021-08-29T10:01:37Z</time>
      </trkpt>
      <trkpt lat="45.44183" lon="5.92137">
        <ele>1540</ele>
        <time>2021-08-29T10:01:50Z</time>
      </trkpt>
      <trkpt lat="45.44178" lon="5.92124">
        <ele>1539</ele>
        <time>2021-08-29T10:03:04Z</time>
      </trkpt>
      <trkpt lat="45.44178" lon="5.92118">
        <ele>1539</ele>
        <time>2021-08-29T10:05:55Z</time>
      </trkpt>
      <trkpt lat="45.44177" lon="5.92111">
        <ele>1542</ele>
        <time>2021-08-29T10:05:58Z</time>
      </trkpt>
      <trkpt lat="45.44176" lon="5.92104">
        <ele>1542</ele>
        <time>2021-08-29T10:06:03Z</time>
      </trkpt>
      <trkpt lat="45.44176" lon="5.92095">
        <ele>1543</ele>
        <time>2021-08-29T10:06:07Z</time>
      </trkpt>
      <trkpt lat="45.44174" lon="5.92087">
        <ele>1540</ele>
        <time>2021-08-29T10:06:11Z</time>
      </trkpt>
      <trkpt lat="45.44173" lon="5.9208">
        <ele>1541</ele>
        <time>2021-08-29T10:06:17Z</time>
      </trkpt>
      <trkpt lat="45.44173" lon="5.92069">
        <ele>1543</ele>
        <time>2021-08-29T10:06:23Z</time>
      </trkpt>
      <trkpt lat="45.44174" lon="5.92061">
        <ele>1540</ele>
        <time>2021-08-29T10:06:28Z</time>
      </trkpt>
      <trkpt lat="45.44176" lon="5.92054">
        <ele>1540</ele>
        <time>2021-08-29T10:06:31Z</time>
      </trkpt>
      <trkpt lat="45.44179" lon="5.92042">
        <ele>1540</ele>
        <time>2021-08-29T10:06:38Z</time>
      </trkpt>
      <trkpt lat="45.44178" lon="5.92033">
        <ele>1540</ele>
        <time>2021-08-29T10:06:43Z</time>
      </trkpt>
      <trkpt lat="45.44178" lon="5.92026">
        <ele>1538</ele>
        <time>2021-08-29T10:06:57Z</time>
      </trkpt>
      <trkpt lat="45.44174" lon="5.92016">
        <ele>1538</ele>
        <time>2021-08-29T10:07:09Z</time>
      </trkpt>
      <trkpt lat="45.44174" lon="5.92008">
        <ele>1537</ele>
        <time>2021-08-29T10:07:11Z</time>
      </trkpt>
      <trkpt lat="45.44175" lon="5.91999">
        <ele>1536</ele>
        <time>2021-08-29T10:07:13Z</time>
      </trkpt>
      <trkpt lat="45.44175" lon="5.91982">
        <ele>1538</ele>
        <time>2021-08-29T10:07:19Z</time>
      </trkpt>
      <trkpt lat="45.44177" lon="5.91973">
        <ele>1538</ele>
        <time>2021-08-29T10:07:23Z</time>
      </trkpt>
      <trkpt lat="45.44178" lon="5.91968">
        <ele>1535</ele>
        <time>2021-08-29T10:07:26Z</time>
      </trkpt>
      <trkpt lat="45.44177" lon="5.91962">
        <ele>1535</ele>
        <time>2021-08-29T10:07:30Z</time>
      </trkpt>
      <trkpt lat="45.44178" lon="5.91956">
        <ele>1535</ele>
        <time>2021-08-29T10:07:33Z</time>
      </trkpt>
      <trkpt lat="45.44178" lon="5.91937">
        <ele>1535</ele>
        <time>2021-08-29T10:07:42Z</time>
      </trkpt>
      <trkpt lat="45.44177" lon="5.91932">
        <ele>1534</ele>
        <time>2021-08-29T10:07:45Z</time>
      </trkpt>
      <trkpt lat="45.44177" lon="5.91926">
        <ele>1534</ele>
        <time>2021-08-29T10:07:47Z</time>
      </trkpt>
      <trkpt lat="45.44176" lon="5.9192">
        <ele>1535</ele>
        <time>2021-08-29T10:07:50Z</time>
      </trkpt>
      <trkpt lat="45.44179" lon="5.91894">
        <ele>1535</ele>
        <time>2021-08-29T10:08:02Z</time>
      </trkpt>
      <trkpt lat="45.4418" lon="5.91883">
        <ele>1535</ele>
        <time>2021-08-29T10:08:12Z</time>
      </trkpt>
      <trkpt lat="45.4418" lon="5.91875">
        <ele>1535</ele>
        <time>2021-08-29T10:08:20Z</time>
      </trkpt>
      <trkpt lat="45.44186" lon="5.91869">
        <ele>1534</ele>
        <time>2021-08-29T10:08:32Z</time>
      </trkpt>
      <trkpt lat="45.44194" lon="5.91865">
        <ele>1532</ele>
        <time>2021-08-29T10:08:44Z</time>
      </trkpt>
      <trkpt lat="45.442" lon="5.91857">
        <ele>1528</ele>
        <time>2021-08-29T10:09:02Z</time>
      </trkpt>
      <trkpt lat="45.44202" lon="5.91848">
        <ele>1526</ele>
        <time>2021-08-29T10:09:14Z</time>
      </trkpt>
      <trkpt lat="45.44207" lon="5.91841">
        <ele>1523</ele>
        <time>2021-08-29T10:09:26Z</time>
      </trkpt>
      <trkpt lat="45.44228" lon="5.91838">
        <ele>1516</ele>
        <time>2021-08-29T10:09:52Z</time>
      </trkpt>
      <trkpt lat="45.44233" lon="5.91841">
        <ele>1514</ele>
        <time>2021-08-29T10:09:57Z</time>
      </trkpt>
      <trkpt lat="45.44236" lon="5.91834">
        <ele>1511</ele>
        <time>2021-08-29T10:10:17Z</time>
      </trkpt>
      <trkpt lat="45.44236" lon="5.91834">
        <ele>1511</ele>
        <time>2021-08-29T10:10:18Z</time>
      </trkpt>
      <trkpt lat="45.44236" lon="5.91832">
        <ele>1508</ele>
        <time>2021-08-29T10:10:31Z</time>
      </trkpt>
      <trkpt lat="45.44236" lon="5.91832">
        <ele>1508</ele>
        <time>2021-08-29T10:10:32Z</time>
      </trkpt>
      <trkpt lat="45.44226" lon="5.91813">
        <ele>1507</ele>
        <time>2021-08-29T10:11:41Z</time>
      </trkpt>
      <trkpt lat="45.44224" lon="5.91806">
        <ele>1505</ele>
        <time>2021-08-29T10:11:50Z</time>
      </trkpt>
      <trkpt lat="45.44232" lon="5.91801">
        <ele>1497</ele>
        <time>2021-08-29T10:12:22Z</time>
      </trkpt>
      <trkpt lat="45.44238" lon="5.91801">
        <ele>1479</ele>
        <time>2021-08-29T10:13:10Z</time>
      </trkpt>
      <trkpt lat="45.44289" lon="5.91819">
        <ele>1452</ele>
        <time>2021-08-29T10:14:24Z</time>
      </trkpt>
      <trkpt lat="45.44322" lon="5.91779">
        <ele>1435</ele>
        <time>2021-08-29T10:15:12Z</time>
      </trkpt>
      <trkpt lat="45.4432" lon="5.91419">
        <ele>1271</ele>
        <time>2021-08-29T10:24:34Z</time>
      </trkpt>
      <trkpt lat="45.44336" lon="5.91423">
        <ele>1268</ele>
        <time>2021-08-29T10:25:12Z</time>
      </trkpt>
      <trkpt lat="45.44328" lon="5.91409">
        <ele>1264</ele>
        <time>2021-08-29T10:25:30Z</time>
      </trkpt>
      <trkpt lat="45.44329" lon="5.91417">
        <ele>1260</ele>
        <time>2021-08-29T10:25:51Z</time>
      </trkpt>
      <trkpt lat="45.44329" lon="5.91418">
        <ele>1260</ele>
        <time>2021-08-29T10:25:52Z</time>
      </trkpt>
      <trkpt lat="45.4434" lon="5.91382">
        <ele>1243</ele>
        <time>2021-08-29T10:26:49Z</time>
      </trkpt>
      <trkpt lat="45.44352" lon="5.91363">
        <ele>1240</ele>
        <time>2021-08-29T10:27:01Z</time>
      </trkpt>
      <trkpt lat="45.44372" lon="5.91331">
        <ele>1232</ele>
        <time>2021-08-29T10:27:17Z</time>
      </trkpt>
      <trkpt lat="45.4438" lon="5.91313">
        <ele>1231</ele>
        <time>2021-08-29T10:27:24Z</time>
      </trkpt>
      <trkpt lat="45.44387" lon="5.91296">
        <ele>1226</ele>
        <time>2021-08-29T10:27:35Z</time>
      </trkpt>
      <trkpt lat="45.44381" lon="5.91275">
        <ele>1222</ele>
        <time>2021-08-29T10:28:07Z</time>
      </trkpt>
      <trkpt lat="45.4438" lon="5.91274">
        <ele>1222</ele>
        <time>2021-08-29T10:28:08Z</time>
      </trkpt>
      <trkpt lat="45.44349" lon="5.91262">
        <ele>1215</ele>
        <time>2021-08-29T10:28:38Z</time>
      </trkpt>
      <trkpt lat="45.44319" lon="5.91274">
        <ele>1214</ele>
        <time>2021-08-29T10:29:07Z</time>
      </trkpt>
      <trkpt lat="45.44291" lon="5.91261">
        <ele>1213</ele>
        <time>2021-08-29T10:29:29Z</time>
      </trkpt>
      <trkpt lat="45.44277" lon="5.91268">
        <ele>1214</ele>
        <time>2021-08-29T10:29:39Z</time>
      </trkpt>
      <trkpt lat="45.4425" lon="5.91273">
        <ele>1210</ele>
        <time>2021-08-29T10:30:00Z</time>
      </trkpt>
      <trkpt lat="45.44233" lon="5.91271">
        <ele>1206</ele>
        <time>2021-08-29T10:30:11Z</time>
      </trkpt>
      <trkpt lat="45.4422" lon="5.9128">
        <ele>1207</ele>
        <time>2021-08-29T10:30:20Z</time>
      </trkpt>
      <trkpt lat="45.44195" lon="5.91308">
        <ele>1202</ele>
        <time>2021-08-29T10:30:44Z</time>
      </trkpt>
      <trkpt lat="45.4417" lon="5.91327">
        <ele>1201</ele>
        <time>2021-08-29T10:31:06Z</time>
      </trkpt>
      <trkpt lat="45.44157" lon="5.91336">
        <ele>1197</ele>
        <time>2021-08-29T10:31:17Z</time>
      </trkpt>
      <trkpt lat="45.44142" lon="5.91338">
        <ele>1194</ele>
        <time>2021-08-29T10:31:30Z</time>
      </trkpt>
      <trkpt lat="45.44113" lon="5.91326">
        <ele>1189</ele>
        <time>2021-08-29T10:31:48Z</time>
      </trkpt>
      <trkpt lat="45.44101" lon="5.91335">
        <ele>1188</ele>
        <time>2021-08-29T10:31:59Z</time>
      </trkpt>
      <trkpt lat="45.44087" lon="5.9133">
        <ele>1188</ele>
        <time>2021-08-29T10:32:10Z</time>
      </trkpt>
      <trkpt lat="45.44082" lon="5.91301">
        <ele>1180</ele>
        <time>2021-08-29T10:32:39Z</time>
      </trkpt>
      <trkpt lat="45.44075" lon="5.91281">
        <ele>1177</ele>
        <time>2021-08-29T10:32:49Z</time>
      </trkpt>
      <trkpt lat="45.44064" lon="5.9127">
        <ele>1174</ele>
        <time>2021-08-29T10:32:58Z</time>
      </trkpt>
      <trkpt lat="45.44033" lon="5.91267">
        <ele>1170</ele>
        <time>2021-08-29T10:33:18Z</time>
      </trkpt>
      <trkpt lat="45.44028" lon="5.91267">
        <ele>1170</ele>
        <time>2021-08-29T10:33:23Z</time>
      </trkpt>
      <trkpt lat="45.44024" lon="5.91261">
        <ele>1169</ele>
        <time>2021-08-29T10:33:29Z</time>
      </trkpt>
      <trkpt lat="45.44019" lon="5.91257">
        <ele>1169</ele>
        <time>2021-08-29T10:33:32Z</time>
      </trkpt>
      <trkpt lat="45.44016" lon="5.9125">
        <ele>1167</ele>
        <time>2021-08-29T10:33:37Z</time>
      </trkpt>
      <trkpt lat="45.44013" lon="5.91242">
        <ele>1166</ele>
        <time>2021-08-29T10:33:41Z</time>
      </trkpt>
      <trkpt lat="45.44009" lon="5.91238">
        <ele>1165</ele>
        <time>2021-08-29T10:33:46Z</time>
      </trkpt>
      <trkpt lat="45.43998" lon="5.91228">
        <ele>1162</ele>
        <time>2021-08-29T10:33:54Z</time>
      </trkpt>
      <trkpt lat="45.43992" lon="5.9122">
        <ele>1160</ele>
        <time>2021-08-29T10:34:01Z</time>
      </trkpt>
      <trkpt lat="45.43988" lon="5.91211">
        <ele>1159</ele>
        <time>2021-08-29T10:34:06Z</time>
      </trkpt>
      <trkpt lat="45.43987" lon="5.91203">
        <ele>1159</ele>
        <time>2021-08-29T10:34:10Z</time>
      </trkpt>
      <trkpt lat="45.43987" lon="5.91195">
        <ele>1158</ele>
        <time>2021-08-29T10:34:14Z</time>
      </trkpt>
      <trkpt lat="45.4399" lon="5.91186">
        <ele>1158</ele>
        <time>2021-08-29T10:34:18Z</time>
      </trkpt>
      <trkpt lat="45.43985" lon="5.91168">
        <ele>1155</ele>
        <time>2021-08-29T10:34:30Z</time>
      </trkpt>
      <trkpt lat="45.43981" lon="5.91161">
        <ele>1154</ele>
        <time>2021-08-29T10:34:37Z</time>
      </trkpt>
      <trkpt lat="45.43991" lon="5.91151">
        <ele>1152</ele>
        <time>2021-08-29T10:34:49Z</time>
      </trkpt>
      <trkpt lat="45.43998" lon="5.91151">
        <ele>1153</ele>
        <time>2021-08-29T10:34:55Z</time>
      </trkpt>
      <trkpt lat="45.44007" lon="5.91156">
        <ele>1153</ele>
        <time>2021-08-29T10:35:02Z</time>
      </trkpt>
      <trkpt lat="45.44014" lon="5.91154">
        <ele>1154</ele>
        <time>2021-08-29T10:35:07Z</time>
      </trkpt>
      <trkpt lat="45.44022" lon="5.91154">
        <ele>1149</ele>
        <time>2021-08-29T10:35:12Z</time>
      </trkpt>
      <trkpt lat="45.4403" lon="5.91161">
        <ele>1152</ele>
        <time>2021-08-29T10:35:17Z</time>
      </trkpt>
      <trkpt lat="45.44039" lon="5.91138">
        <ele>1149</ele>
        <time>2021-08-29T10:35:48Z</time>
      </trkpt>
      <trkpt lat="45.44039" lon="5.91118">
        <ele>1150</ele>
        <time>2021-08-29T10:36:01Z</time>
      </trkpt>
      <trkpt lat="45.44042" lon="5.91097">
        <ele>1152</ele>
        <time>2021-08-29T10:36:12Z</time>
      </trkpt>
      <trkpt lat="45.44045" lon="5.91088">
        <ele>1153</ele>
        <time>2021-08-29T10:36:18Z</time>
      </trkpt>
      <trkpt lat="45.44048" lon="5.91082">
        <ele>1152</ele>
        <time>2021-08-29T10:36:24Z</time>
      </trkpt>
      <trkpt lat="45.44046" lon="5.91073">
        <ele>1151</ele>
        <time>2021-08-29T10:36:28Z</time>
      </trkpt>
      <trkpt lat="45.44041" lon="5.91066">
        <ele>1150</ele>
        <time>2021-08-29T10:36:37Z</time>
      </trkpt>
      <trkpt lat="45.44026" lon="5.91036">
        <ele>1150</ele>
        <time>2021-08-29T10:36:57Z</time>
      </trkpt>
      <trkpt lat="45.44026" lon="5.91002">
        <ele>1150</ele>
        <time>2021-08-29T10:37:13Z</time>
      </trkpt>
      <trkpt lat="45.44027" lon="5.90994">
        <ele>1150</ele>
        <time>2021-08-29T10:37:18Z</time>
      </trkpt>
      <trkpt lat="45.44026" lon="5.90959">
        <ele>1147</ele>
        <time>2021-08-29T10:37:41Z</time>
      </trkpt>
      <trkpt lat="45.44023" lon="5.9095">
        <ele>1146</ele>
        <time>2021-08-29T10:37:44Z</time>
      </trkpt>
      <trkpt lat="45.44022" lon="5.90941">
        <ele>1146</ele>
        <time>2021-08-29T10:37:48Z</time>
      </trkpt>
      <trkpt lat="45.44031" lon="5.9094">
        <ele>1144</ele>
        <time>2021-08-29T10:37:57Z</time>
      </trkpt>
      <trkpt lat="45.44045" lon="5.90942">
        <ele>1143</ele>
        <time>2021-08-29T10:38:06Z</time>
      </trkpt>
      <trkpt lat="45.44058" lon="5.90941">
        <ele>1142</ele>
        <time>2021-08-29T10:38:15Z</time>
      </trkpt>
      <trkpt lat="45.44062" lon="5.90936">
        <ele>1141</ele>
        <time>2021-08-29T10:38:19Z</time>
      </trkpt>
      <trkpt lat="45.4407" lon="5.90919">
        <ele>1140</ele>
        <time>2021-08-29T10:38:32Z</time>
      </trkpt>
      <trkpt lat="45.44075" lon="5.90894">
        <ele>1137</ele>
        <time>2021-08-29T10:38:43Z</time>
      </trkpt>
      <trkpt lat="45.44078" lon="5.90888">
        <ele>1137</ele>
        <time>2021-08-29T10:38:48Z</time>
      </trkpt>
      <trkpt lat="45.44083" lon="5.90878">
        <ele>1136</ele>
        <time>2021-08-29T10:38:56Z</time>
      </trkpt>
      <trkpt lat="45.44096" lon="5.90863">
        <ele>1133</ele>
        <time>2021-08-29T10:39:15Z</time>
      </trkpt>
      <trkpt lat="45.44093" lon="5.90845">
        <ele>1132</ele>
        <time>2021-08-29T10:39:26Z</time>
      </trkpt>
      <trkpt lat="45.4407" lon="5.9081">
        <ele>1129</ele>
        <time>2021-08-29T10:39:49Z</time>
      </trkpt>
      <trkpt lat="45.44056" lon="5.90797">
        <ele>1128</ele>
        <time>2021-08-29T10:40:00Z</time>
      </trkpt>
      <trkpt lat="45.44052" lon="5.90789">
        <ele>1127</ele>
        <time>2021-08-29T10:40:04Z</time>
      </trkpt>
      <trkpt lat="45.44048" lon="5.90766">
        <ele>1126</ele>
        <time>2021-08-29T10:40:15Z</time>
      </trkpt>
      <trkpt lat="45.44052" lon="5.90739">
        <ele>1124</ele>
        <time>2021-08-29T10:40:24Z</time>
      </trkpt>
      <trkpt lat="45.44059" lon="5.90737">
        <ele>1123</ele>
        <time>2021-08-29T10:40:28Z</time>
      </trkpt>
      <trkpt lat="45.44069" lon="5.90722">
        <ele>1121</ele>
        <time>2021-08-29T10:40:39Z</time>
      </trkpt>
      <trkpt lat="45.44084" lon="5.90684">
        <ele>1118</ele>
        <time>2021-08-29T10:40:59Z</time>
      </trkpt>
      <trkpt lat="45.44087" lon="5.90674">
        <ele>1118</ele>
        <time>2021-08-29T10:41:03Z</time>
      </trkpt>
      <trkpt lat="45.44089" lon="5.90654">
        <ele>1116</ele>
        <time>2021-08-29T10:41:16Z</time>
      </trkpt>
      <trkpt lat="45.44091" lon="5.90643">
        <ele>1116</ele>
        <time>2021-08-29T10:41:23Z</time>
      </trkpt>
      <trkpt lat="45.44098" lon="5.9063">
        <ele>1114</ele>
        <time>2021-08-29T10:41:38Z</time>
      </trkpt>
      <trkpt lat="45.44103" lon="5.9062">
        <ele>1113</ele>
        <time>2021-08-29T10:41:43Z</time>
      </trkpt>
      <trkpt lat="45.44106" lon="5.9061">
        <ele>1112</ele>
        <time>2021-08-29T10:41:48Z</time>
      </trkpt>
      <trkpt lat="45.44112" lon="5.90601">
        <ele>1111</ele>
        <time>2021-08-29T10:41:56Z</time>
      </trkpt>
      <trkpt lat="45.44118" lon="5.90598">
        <ele>1110</ele>
        <time>2021-08-29T10:42:04Z</time>
      </trkpt>
    </trkseg>
  </trk>
  <rte>
    <name><![CDATA[4 avr. 2019 à 23:11:12]]></name>
    <cmt><![CDATA[4 avr. 2019 à 23:11:12]]></cmt>
    <desc><![CDATA[{DC1}Heure de fin	: 
Durée totale	: 0h00:00
Moyenne globale	: -
Pente moyenne	: 0.00 %
Aire incluse	: 7.4932 ha
Détails par segments
distance  | durée    | vit.moy. | vit.max. | déniv. + | déniv -
   km     | hh:mn:ss |   km/h   |   km/h   |    m     |    m
     0.81 | 00:00:00 |      0.0 |      0.0 |        0 |        0{DC2}]]></desc>
      <rtept lat="45.60077" lon="6.18221">
        <ele>1608.6</ele>
      </rtept>
      <rtept lat="45.59468" lon="6.1822">
        <ele>1760.9</ele>
      </rtept>
      <rtept lat="45.59468" lon="6.1822">
        <ele>1760.9</ele>
      </rtept>
    </rte>
  <rte>
    <name><![CDATA[10 févr. 2019 à 15:16:12]]></name>
    <cmt><![CDATA[10 févr. 2019 à 15:16:12]]></cmt>
    <desc><![CDATA[{DC1}Heure de fin	: 00:09:21
Durée totale	: -17690439h43:48
Moyenne globale	: -
Pente moyenne	: 7.00 %
Aire incluse	: 221.0936 ha
Détails par segments
distance  | durée    | vit.moy. | vit.max. | déniv. + | déniv -
   km     | hh:mn:ss |   km/h   |   km/h   |    m     |    m
     7.48 | 00:00:00 |      0.0 |      0.0 |        0 |        0{DC2}]]></desc>
      <rtept lat="45.55203" lon="5.93805">
        <ele>376</ele>
      </rtept>
      <rtept lat="45.55177" lon="5.93873">
        <ele>369</ele>
      </rtept>
      <rtept lat="45.55176" lon="5.93942">
        <ele>367</ele>
      </rtept>
      <rtept lat="45.55105" lon="5.93942">
        <ele>367</ele>
      </rtept>
      <rtept lat="45.54993" lon="5.93908">
        <ele>371</ele>
      </rtept>
      <rtept lat="45.54929" lon="5.94099">
        <ele>370</ele>
      </rtept>
      <rtept lat="45.54908" lon="5.94204">
        <ele>367</ele>
      </rtept>
      <rtept lat="45.54991" lon="5.94287">
        <ele>365</ele>
      </rtept>
      <rtept lat="45.5506" lon="5.94384">
        <ele>361</ele>
      </rtept>
      <rtept lat="45.55147" lon="5.94384">
        <ele>357</ele>
      </rtept>
      <rtept lat="45.55129" lon="5.94607">
        <ele>358</ele>
      </rtept>
      <rtept lat="45.55029" lon="5.94809">
        <ele>355</ele>
      </rtept>
      <rtept lat="45.54884" lon="5.94886">
        <ele>346</ele>
      </rtept>
      <rtept lat="45.5477" lon="5.94931">
        <ele>342</ele>
      </rtept>
      <rtept lat="45.5468" lon="5.95004">
        <ele>339</ele>
      </rtept>
      <rtept lat="45.54596" lon="5.95133">
        <ele>340</ele>
      </rtept>
      <rtept lat="45.54446" lon="5.95195">
        <ele>343</ele>
      </rtept>
      <rtept lat="45.543" lon="5.95262">
        <ele>344</ele>
      </rtept>
      <rtept lat="45.54156" lon="5.95212">
        <ele>337</ele>
      </rtept>
      <rtept lat="45.54041" lon="5.95204">
        <ele>338</ele>
      </rtept>
      <rtept lat="45.53917" lon="5.95141">
        <ele>343</ele>
      </rtept>
      <rtept lat="45.53844" lon="5.95135">
        <ele>347</ele>
      </rtept>
      <rtept lat="45.53765" lon="5.9503">
        <ele>349</ele>
      </rtept>
      <rtept lat="45.5381" lon="5.94993">
        <ele>352</ele>
      </rtept>
      <rtept lat="45.53781" lon="5.94901">
        <ele>358</ele>
      </rtept>
      <rtept lat="45.53711" lon="5.94845">
        <ele>365</ele>
      </rtept>
      <rtept lat="45.53702" lon="5.94764">
        <ele>369</ele>
      </rtept>
      <rtept lat="45.53817" lon="5.94807">
        <ele>376</ele>
      </rtept>
      <rtept lat="45.53865" lon="5.94633">
        <ele>389</ele>
      </rtept>
      <rtept lat="45.53778" lon="5.94491">
        <ele>408</ele>
      </rtept>
      <rtept lat="45.53757" lon="5.94371">
        <ele>425</ele>
      </rtept>
      <rtept lat="45.53775" lon="5.94279">
        <ele>434</ele>
      </rtept>
      <rtept lat="45.53726" lon="5.94227">
        <ele>442</ele>
      </rtept>
      <rtept lat="45.53572" lon="5.94146">
        <ele>468</ele>
      </rtept>
      <rtept lat="45.53664" lon="5.94039">
        <ele>483</ele>
      </rtept>
      <rtept lat="45.53532" lon="5.93983">
        <ele>505</ele>
      </rtept>
      <rtept lat="45.53416" lon="5.93985">
        <ele>516</ele>
      </rtept>
      <rtept lat="45.5355" lon="5.93869">
        <ele>532</ele>
      </rtept>
      <rtept lat="45.5359" lon="5.93845">
        <ele>537</ele>
      </rtept>
      <rtept lat="45.5355" lon="5.93802">
        <ele>544</ele>
      </rtept>
      <rtept lat="45.53724" lon="5.93554">
        <ele>587</ele>
      </rtept>
      <rtept lat="45.53691" lon="5.93339">
        <ele>592</ele>
      </rtept>
      <rtept lat="45.5376" lon="5.93178">
        <ele>575</ele>
      </rtept>
      <rtept lat="45.53843" lon="5.93069">
        <ele>555</ele>
      </rtept>
      <rtept lat="45.53939" lon="5.93157">
        <ele>541</ele>
      </rtept>
      <rtept lat="45.54068" lon="5.93234">
        <ele>522</ele>
      </rtept>
      <rtept lat="45.54219" lon="5.93247">
        <ele>514</ele>
      </rtept>
      <rtept lat="45.54355" lon="5.93232">
        <ele>512</ele>
      </rtept>
      <rtept lat="45.54489" lon="5.9326">
        <ele>508</ele>
      </rtept>
      <rtept lat="45.54636" lon="5.93249">
        <ele>510</ele>
      </rtept>
      <rtept lat="45.54758" lon="5.93249">
        <ele>510</ele>
      </rtept>
      <rtept lat="45.54818" lon="5.93298">
        <ele>507</ele>
      </rtept>
      <rtept lat="45.54796" lon="5.93418">
        <ele>496</ele>
      </rtept>
      <rtept lat="45.5491" lon="5.93433">
        <ele>483</ele>
      </rtept>
      <rtept lat="45.55126" lon="5.9341">
        <ele>463</ele>
      </rtept>
      <rtept lat="45.55256" lon="5.93453">
        <ele>444</ele>
      </rtept>
      <rtept lat="45.55329" lon="5.93558">
        <ele>430</ele>
      </rtept>
      <rtept lat="45.55222" lon="5.93642">
        <ele>415</ele>
      </rtept>
      <rtept lat="45.55195" lon="5.93811">
        <ele>375</ele>
      </rtept>
    </rte>
  <rte>
    <name><![CDATA[10 févr. 2019 à 15:15:48]]></name>
    <cmt><![CDATA[10 févr. 2019 à 15:15:48]]></cmt>
    <desc><![CDATA[{DC1}Heure de fin	: 00:09:21
Durée totale	: -17690439h44:12
Moyenne globale	: -
Pente moyenne	: nan %
Aire incluse	: 0.0000 ha
Détails par segments
distance  | durée    | vit.moy. | vit.max. | déniv. + | déniv -
   km     | hh:mn:ss |   km/h   |   km/h   |    m     |    m
     0.00 | 00:00:00 |      0.0 |      0.0 |        0 |        0{DC2}]]></desc>
      <rtept lat="45.5175" lon="5.93483">
        <ele>732.3</ele>
      </rtept>
    </rte>
  <rte>
    <name><![CDATA[10 févr. 2019 à 15:06:08]]></name>
    <cmt><![CDATA[10 févr. 2019 à 15:06:08]]></cmt>
    <desc><![CDATA[{DC1}Heure de fin	: 
Durée totale	: 0h00:00
Moyenne globale	: -
Pente moyenne	: 8.03 %
Aire incluse	: 204.0794 ha
Détails par segments
distance  | durée    | vit.moy. | vit.max. | déniv. + | déniv -
   km     | hh:mn:ss |   km/h   |   km/h   |    m     |    m
    12.88 | 00:00:00 |      0.0 |      0.0 |        0 |        0{DC2}]]></desc>
      <rtept lat="45.5509" lon="5.9394">
        <ele>368</ele>
      </rtept>
      <rtept lat="45.55217" lon="5.93791">
        <ele>377</ele>
      </rtept>
    </rte>
  <rte>
    <name><![CDATA[10 févr. 2019 à 14:22:06]]></name>
    <cmt><![CDATA[10 févr. 2019 à 14:22:06]]></cmt>
    <desc><![CDATA[{DC1}Heure de fin	: 00:09:21
Durée totale	: -17690438h37:54
Moyenne globale	: -
Pente moyenne	: 5.62 %
Aire incluse	: 5.7967 ha
Détails par segments
distance  | durée    | vit.moy. | vit.max. | déniv. + | déniv -
   km     | hh:mn:ss |   km/h   |   km/h   |    m     |    m
     3.30 | 00:00:00 |      0.0 |      0.0 |        0 |        0{DC2}]]></desc>
      <rtept lat="45.55169" lon="5.93089">
        <ele>415</ele>
      </rtept>
      <rtept lat="45.5518" lon="5.93905">
        <ele>366</ele>
      </rtept>
    </rte>
  <rte>
    <name><![CDATA[10 févr. 2019 à 09:50:45]]></name>
    <cmt><![CDATA[10 févr. 2019 à 09:50:45]]></cmt>
    <desc><![CDATA[{DC1}Heure de fin	: 00:09:21
Durée totale	: -17690433h09:14
Moyenne globale	: -
Pente moyenne	: 0.00 %
Aire incluse	: 50.7119 ha
Détails par segments
distance  | durée    | vit.moy. | vit.max. | déniv. + | déniv -
   km     | hh:mn:ss |   km/h   |   km/h   |    m     |    m
     4.33 | 00:00:00 |      0.0 |      0.0 |        0 |        0{DC2}]]></desc>
      <rtept lat="45.5503" lon="5.93918">
        <ele>373.6</ele>
      </rtept>
      <rtept lat="45.55191" lon="5.93893">
        <ele>366.7</ele>
      </rtept>
    </rte>
  <rte>
    <name><![CDATA[10 févr. 2019 à 09:07:08]]></name>
    <cmt><![CDATA[10 févr. 2019 à 09:07:08]]></cmt>
    <desc><![CDATA[{DC1}Heure de fin	: 00:09:21
Durée totale	: -17690433h52:52
Moyenne globale	: -
Pente moyenne	: nan %
Aire incluse	: 0.0000 ha
Détails par segments
distance  | durée    | vit.moy. | vit.max. | déniv. + | déniv -
   km     | hh:mn:ss |   km/h   |   km/h   |    m     |    m
     0.00 | 00:00:00 |      0.0 |      0.0 |        0 |        0{DC2}]]></desc>
      <rtept lat="45.55102" lon="5.93919">
        <ele>370.1</ele>
      </rtept>
    </rte>
  <rte>
    <name><![CDATA[10 févr. 2019 à 09:02:25]]></name>
    <cmt><![CDATA[10 févr. 2019 à 09:02:25]]></cmt>
    <desc><![CDATA[{DC1}Heure de fin	: 00:09:21
Durée totale	: -17690433h57:35
Moyenne globale	: -
Pente moyenne	: nan %
Aire incluse	: 0.0000 ha
Détails par segments
distance  | durée    | vit.moy. | vit.max. | déniv. + | déniv -
   km     | hh:mn:ss |   km/h   |   km/h   |    m     |    m
     0.00 | 00:00:00 |      0.0 |      0.0 |        0 |        0{DC2}]]></desc>
      <rtept lat="45.55207" lon="5.93813">
        <ele>375.2</ele>
      </rtept>
    </rte>
  <rte>
    <name><![CDATA[10 févr. 2019 à 09:00:27]]></name>
    <cmt><![CDATA[10 févr. 2019 à 09:00:27]]></cmt>
    <desc><![CDATA[{DC1}Heure de fin	: 00:09:21
Durée totale	: -17690433h59:32
Moyenne globale	: -
Pente moyenne	: nan %
Aire incluse	: 0.0000 ha
Détails par segments
distance  | durée    | vit.moy. | vit.max. | déniv. + | déniv -
   km     | hh:mn:ss |   km/h   |   km/h   |    m     |    m
     0.00 | 00:00:00 |      0.0 |      0.0 |        0 |        0{DC2}]]></desc>
      <rtept lat="45.55244" lon="5.93858">
        <ele>366.6</ele>
      </rtept>
    </rte>
</gpx>